sensor_id;sensor_type;location;lat;lon;timestamp;P1;durP1;ratioP1;P2;durP2;ratioP2
52300;SDS011;38528;53.214;6.562;2022-09-16T00:01:23;6.65;;;1.77;;
52300;SDS011;38528;53.214;6.562;2022-09-16T00:03:52;5.30;;;1.60;;
52300;SDS011;38528;53.214;6.562;2022-09-16T00:06:26;6.10;;;1.70;;
52300;SDS011;38528;53.214;6.562;2022-09-16T00:08:54;5.47;;;1.58;;
52300;SDS011;38528;53.214;6.562;2022-09-16T00:11:21;5.32;;;1.70;;
52300;SDS011;38528;53.214;6.562;2022-09-16T00:13:47;6.65;;;2.25;;
52300;SDS011;38528;53.214;6.562;2022-09-16T00:16:17;7.47;;;1.70;;
52300;SDS011;38528;53.214;6.562;2022-09-16T00:18:44;9.23;;;1.75;;
52300;SDS011;38528;53.214;6.562;2022-09-16T00:21:10;5.35;;;1.80;;
52300;SDS011;38528;53.214;6.562;2022-09-16T00:23:36;8.02;;;1.63;;
52300;SDS011;38528;53.214;6.562;2022-09-16T00:26:02;8.88;;;1.95;;
52300;SDS011;38528;53.214;6.562;2022-09-16T00:28:28;7.25;;;1.60;;
52300;SDS011;38528;53.214;6.562;2022-09-16T00:30:57;6.00;;;1.50;;
52300;SDS011;38528;53.214;6.562;2022-09-16T00:33:27;4.95;;;1.42;;
52300;SDS011;38528;53.214;6.562;2022-09-16T00:36:06;11.43;;;1.77;;
52300;SDS011;38528;53.214;6.562;2022-09-16T00:38:32;7.35;;;1.80;;
52300;SDS011;38528;53.214;6.562;2022-09-16T00:40:57;7.82;;;1.90;;
52300;SDS011;38528;53.214;6.562;2022-09-16T00:43:23;9.23;;;2.05;;
52300;SDS011;38528;53.214;6.562;2022-09-16T00:45:53;6.57;;;2.05;;
52300;SDS011;38528;53.214;6.562;2022-09-16T00:48:26;6.05;;;2.13;;
52300;SDS011;38528;53.214;6.562;2022-09-16T00:50:58;7.82;;;2.25;;
52300;SDS011;38528;53.214;6.562;2022-09-16T00:53:28;5.40;;;1.42;;
52300;SDS011;38528;53.214;6.562;2022-09-16T00:56:00;4.00;;;1.40;;
52300;SDS011;38528;53.214;6.562;2022-09-16T00:58:38;5.32;;;1.45;;
52300;SDS011;38528;53.214;6.562;2022-09-16T01:01:18;6.38;;;1.23;;
52300;SDS011;38528;53.214;6.562;2022-09-16T01:03:45;3.30;;;1.20;;
52300;SDS011;38528;53.214;6.562;2022-09-16T01:06:14;3.30;;;1.38;;
52300;SDS011;38528;53.214;6.562;2022-09-16T01:08:43;4.78;;;1.50;;
52300;SDS011;38528;53.214;6.562;2022-09-16T01:11:10;5.28;;;1.50;;
52300;SDS011;38528;53.214;6.562;2022-09-16T01:13:36;7.75;;;1.48;;
52300;SDS011;38528;53.214;6.562;2022-09-16T01:18:37;7.43;;;1.63;;
52300;SDS011;38528;53.214;6.562;2022-09-16T01:45:40;8.18;;;1.92;;
52300;SDS011;38528;53.214;6.562;2022-09-16T01:53:36;10.73;;;2.05;;
52300;SDS011;38528;53.214;6.562;2022-09-16T01:56:23;8.23;;;1.88;;
52300;SDS011;38528;53.214;6.562;2022-09-16T01:59:07;5.68;;;1.70;;
52300;SDS011;38528;53.214;6.562;2022-09-16T02:01:37;8.27;;;2.03;;
52300;SDS011;38528;53.214;6.562;2022-09-16T02:04:14;11.43;;;2.28;;
52300;SDS011;38528;53.214;6.562;2022-09-16T02:09:15;9.80;;;2.38;;
52300;SDS011;38528;53.214;6.562;2022-09-16T02:11:46;8.02;;;1.90;;
52300;SDS011;38528;53.214;6.562;2022-09-16T02:14:22;8.25;;;1.67;;
52300;SDS011;38528;53.214;6.562;2022-09-16T02:16:52;10.50;;;2.05;;
52300;SDS011;38528;53.214;6.562;2022-09-16T02:19:40;5.68;;;1.63;;
52300;SDS011;38528;53.214;6.562;2022-09-16T02:22:33;10.02;;;1.80;;
52300;SDS011;38528;53.214;6.562;2022-09-16T02:25:03;9.40;;;1.65;;
52300;SDS011;38528;53.214;6.562;2022-09-16T02:27:30;7.95;;;1.85;;
52300;SDS011;38528;53.214;6.562;2022-09-16T02:30:01;8.90;;;1.75;;
52300;SDS011;38528;53.214;6.562;2022-09-16T02:32:30;6.50;;;1.90;;
52300;SDS011;38528;53.214;6.562;2022-09-16T02:34:57;4.38;;;1.50;;
52300;SDS011;38528;53.214;6.562;2022-09-16T02:40:17;7.63;;;1.73;;
52300;SDS011;38528;53.214;6.562;2022-09-16T02:42:46;7.07;;;1.42;;
52300;SDS011;38528;53.214;6.562;2022-09-16T02:45:13;7.18;;;1.60;;
52300;SDS011;38528;53.214;6.562;2022-09-16T02:52:50;9.02;;;2.20;;
52300;SDS011;38528;53.214;6.562;2022-09-16T02:58:01;13.02;;;2.00;;
52300;SDS011;38528;53.214;6.562;2022-09-16T03:00:28;8.15;;;1.90;;
52300;SDS011;38528;53.214;6.562;2022-09-16T03:02:57;8.20;;;1.88;;
52300;SDS011;38528;53.214;6.562;2022-09-16T03:05:27;9.70;;;2.15;;
52300;SDS011;38528;53.214;6.562;2022-09-16T03:07:53;8.45;;;1.50;;
52300;SDS011;38528;53.214;6.562;2022-09-16T03:10:19;8.77;;;1.60;;
52300;SDS011;38528;53.214;6.562;2022-09-16T03:23:50;13.27;;;2.00;;
52300;SDS011;38528;53.214;6.562;2022-09-16T03:32:22;7.43;;;2.03;;
52300;SDS011;38528;53.214;6.562;2022-09-16T03:37:24;8.75;;;1.80;;
52300;SDS011;38528;53.214;6.562;2022-09-16T03:39:56;11.93;;;1.67;;
52300;SDS011;38528;53.214;6.562;2022-09-16T03:42:23;8.77;;;2.20;;
52300;SDS011;38528;53.214;6.562;2022-09-16T03:44:49;12.18;;;1.98;;
52300;SDS011;38528;53.214;6.562;2022-09-16T03:47:15;7.85;;;1.70;;
52300;SDS011;38528;53.214;6.562;2022-09-16T03:49:41;11.02;;;1.80;;
52300;SDS011;38528;53.214;6.562;2022-09-16T03:52:07;9.60;;;2.00;;
52300;SDS011;38528;53.214;6.562;2022-09-16T03:54:34;11.10;;;1.90;;
52300;SDS011;38528;53.214;6.562;2022-09-16T03:57:00;8.18;;;1.95;;
52300;SDS011;38528;53.214;6.562;2022-09-16T03:59:26;13.50;;;2.10;;
52300;SDS011;38528;53.214;6.562;2022-09-16T04:01:52;11.55;;;2.20;;
52300;SDS011;38528;53.214;6.562;2022-09-16T04:04:17;7.20;;;1.63;;
52300;SDS011;38528;53.214;6.562;2022-09-16T04:06:43;10.55;;;2.10;;
52300;SDS011;38528;53.214;6.562;2022-09-16T04:09:09;11.55;;;2.72;;
52300;SDS011;38528;53.214;6.562;2022-09-16T04:11:36;11.18;;;2.10;;
52300;SDS011;38528;53.214;6.562;2022-09-16T04:14:03;10.63;;;1.98;;
52300;SDS011;38528;53.214;6.562;2022-09-16T04:16:29;7.65;;;1.90;;
52300;SDS011;38528;53.214;6.562;2022-09-16T04:18:55;7.65;;;1.90;;
52300;SDS011;38528;53.214;6.562;2022-09-16T04:21:21;8.32;;;1.52;;
52300;SDS011;38528;53.214;6.562;2022-09-16T04:23:47;11.48;;;1.80;;
52300;SDS011;38528;53.214;6.562;2022-09-16T04:26:13;8.32;;;1.77;;
52300;SDS011;38528;53.214;6.562;2022-09-16T04:28:39;11.80;;;1.90;;
52300;SDS011;38528;53.214;6.562;2022-09-16T04:31:06;7.40;;;1.98;;
52300;SDS011;38528;53.214;6.562;2022-09-16T04:33:34;9.60;;;1.65;;
52300;SDS011;38528;53.214;6.562;2022-09-16T04:36:02;10.27;;;1.92;;
52300;SDS011;38528;53.214;6.562;2022-09-16T04:38:33;7.65;;;1.83;;
52300;SDS011;38528;53.214;6.562;2022-09-16T04:41:02;10.05;;;2.40;;
52300;SDS011;38528;53.214;6.562;2022-09-16T04:43:30;9.85;;;2.60;;
52300;SDS011;38528;53.214;6.562;2022-09-16T04:45:55;9.40;;;2.17;;
52300;SDS011;38528;53.214;6.562;2022-09-16T04:48:21;11.52;;;2.10;;
52300;SDS011;38528;53.214;6.562;2022-09-16T04:50:47;8.43;;;2.30;;
52300;SDS011;38528;53.214;6.562;2022-09-16T04:53:13;11.50;;;2.25;;
52300;SDS011;38528;53.214;6.562;2022-09-16T04:55:39;11.90;;;2.03;;
52300;SDS011;38528;53.214;6.562;2022-09-16T04:58:04;8.73;;;2.15;;
52300;SDS011;38528;53.214;6.562;2022-09-16T05:00:30;12.30;;;2.10;;
52300;SDS011;38528;53.214;6.562;2022-09-16T05:02:55;8.23;;;2.15;;
52300;SDS011;38528;53.214;6.562;2022-09-16T05:05:22;10.93;;;2.38;;
52300;SDS011;38528;53.214;6.562;2022-09-16T05:07:47;11.50;;;2.47;;
52300;SDS011;38528;53.214;6.562;2022-09-16T05:10:13;10.95;;;2.72;;
52300;SDS011;38528;53.214;6.562;2022-09-16T05:12:39;14.45;;;2.40;;
52300;SDS011;38528;53.214;6.562;2022-09-16T05:15:04;13.85;;;2.53;;
52300;SDS011;38528;53.214;6.562;2022-09-16T05:17:31;17.98;;;2.75;;
52300;SDS011;38528;53.214;6.562;2022-09-16T05:19:57;8.40;;;2.42;;
52300;SDS011;38528;53.214;6.562;2022-09-16T05:22:22;10.95;;;2.50;;
52300;SDS011;38528;53.214;6.562;2022-09-16T05:24:48;12.00;;;2.50;;
52300;SDS011;38528;53.214;6.562;2022-09-16T05:27:14;7.60;;;2.03;;
52300;SDS011;38528;53.214;6.562;2022-09-16T05:29:40;9.23;;;2.10;;
52300;SDS011;38528;53.214;6.562;2022-09-16T05:32:05;11.35;;;2.50;;
52300;SDS011;38528;53.214;6.562;2022-09-16T05:34:31;12.30;;;2.30;;
52300;SDS011;38528;53.214;6.562;2022-09-16T05:37:00;12.05;;;2.83;;
52300;SDS011;38528;53.214;6.562;2022-09-16T05:39:25;13.75;;;2.70;;
52300;SDS011;38528;53.214;6.562;2022-09-16T05:41:52;11.05;;;2.30;;
52300;SDS011;38528;53.214;6.562;2022-09-16T05:44:20;10.48;;;2.65;;
52300;SDS011;38528;53.214;6.562;2022-09-16T05:46:46;13.85;;;2.60;;
52300;SDS011;38528;53.214;6.562;2022-09-16T05:49:12;9.65;;;2.30;;
52300;SDS011;38528;53.214;6.562;2022-09-16T05:51:38;10.32;;;2.38;;
52300;SDS011;38528;53.214;6.562;2022-09-16T05:54:06;12.48;;;2.65;;
52300;SDS011;38528;53.214;6.562;2022-09-16T05:56:31;14.57;;;2.45;;
52300;SDS011;38528;53.214;6.562;2022-09-16T05:58:58;9.88;;;2.20;;
52300;SDS011;38528;53.214;6.562;2022-09-16T06:01:28;11.98;;;2.17;;
52300;SDS011;38528;53.214;6.562;2022-09-16T06:03:56;17.77;;;2.65;;
52300;SDS011;38528;53.214;6.562;2022-09-16T06:06:23;8.38;;;2.05;;
52300;SDS011;38528;53.214;6.562;2022-09-16T06:09:03;10.18;;;2.45;;
52300;SDS011;38528;53.214;6.562;2022-09-16T06:11:31;12.70;;;2.58;;
52300;SDS011;38528;53.214;6.562;2022-09-16T06:13:59;10.18;;;2.10;;
52300;SDS011;38528;53.214;6.562;2022-09-16T06:16:26;10.57;;;2.20;;
52300;SDS011;38528;53.214;6.562;2022-09-16T06:18:56;9.05;;;2.30;;
52300;SDS011;38528;53.214;6.562;2022-09-16T06:21:21;10.27;;;2.33;;
52300;SDS011;38528;53.214;6.562;2022-09-16T06:23:48;13.23;;;2.53;;
52300;SDS011;38528;53.214;6.562;2022-09-16T06:26:15;13.52;;;2.38;;
52300;SDS011;38528;53.214;6.562;2022-09-16T06:28:44;11.55;;;2.38;;
52300;SDS011;38528;53.214;6.562;2022-09-16T06:31:12;10.95;;;2.47;;
52300;SDS011;38528;53.214;6.562;2022-09-16T06:33:43;10.60;;;2.25;;
52300;SDS011;38528;53.214;6.562;2022-09-16T06:36:14;12.65;;;2.40;;
52300;SDS011;38528;53.214;6.562;2022-09-16T06:38:42;11.93;;;2.30;;
52300;SDS011;38528;53.214;6.562;2022-09-16T06:41:08;14.32;;;2.50;;
52300;SDS011;38528;53.214;6.562;2022-09-16T06:43:35;10.40;;;2.10;;
52300;SDS011;38528;53.214;6.562;2022-09-16T06:46:05;10.63;;;2.25;;
52300;SDS011;38528;53.214;6.562;2022-09-16T06:48:37;9.35;;;2.25;;
52300;SDS011;38528;53.214;6.562;2022-09-16T06:51:06;10.48;;;2.20;;
52300;SDS011;38528;53.214;6.562;2022-09-16T06:53:36;9.73;;;2.90;;
52300;SDS011;38528;53.214;6.562;2022-09-16T06:56:06;14.15;;;2.35;;
52300;SDS011;38528;53.214;6.562;2022-09-16T06:58:35;9.02;;;2.17;;
52300;SDS011;38528;53.214;6.562;2022-09-16T07:01:05;10.40;;;2.85;;
52300;SDS011;38528;53.214;6.562;2022-09-16T07:03:31;9.45;;;2.08;;
52300;SDS011;38528;53.214;6.562;2022-09-16T07:05:58;14.23;;;2.10;;
52300;SDS011;38528;53.214;6.562;2022-09-16T07:08:28;11.35;;;2.53;;
52300;SDS011;38528;53.214;6.562;2022-09-16T07:10:58;10.65;;;2.35;;
52300;SDS011;38528;53.214;6.562;2022-09-16T07:13:26;9.85;;;2.33;;
52300;SDS011;38528;53.214;6.562;2022-09-16T07:15:52;11.57;;;2.67;;
52300;SDS011;38528;53.214;6.562;2022-09-16T07:18:18;13.30;;;2.78;;
52300;SDS011;38528;53.214;6.562;2022-09-16T07:20:44;14.70;;;2.13;;
52300;SDS011;38528;53.214;6.562;2022-09-16T07:23:09;10.73;;;1.83;;
52300;SDS011;38528;53.214;6.562;2022-09-16T07:25:35;11.35;;;2.55;;
52300;SDS011;38528;53.214;6.562;2022-09-16T07:28:01;9.88;;;2.55;;
52300;SDS011;38528;53.214;6.562;2022-09-16T07:30:27;11.80;;;2.38;;
52300;SDS011;38528;53.214;6.562;2022-09-16T07:32:55;10.30;;;2.20;;
52300;SDS011;38528;53.214;6.562;2022-09-16T07:35:21;15.25;;;2.25;;
52300;SDS011;38528;53.214;6.562;2022-09-16T07:37:46;7.30;;;2.30;;
52300;SDS011;38528;53.214;6.562;2022-09-16T07:40:12;9.25;;;2.10;;
52300;SDS011;38528;53.214;6.562;2022-09-16T07:42:38;9.63;;;2.22;;
52300;SDS011;38528;53.214;6.562;2022-09-16T07:45:04;10.02;;;2.20;;
52300;SDS011;38528;53.214;6.562;2022-09-16T07:47:30;9.27;;;2.13;;
52300;SDS011;38528;53.214;6.562;2022-09-16T07:49:56;11.30;;;2.17;;
52300;SDS011;38528;53.214;6.562;2022-09-16T07:52:22;12.23;;;2.28;;
52300;SDS011;38528;53.214;6.562;2022-09-16T07:54:53;13.70;;;2.30;;
52300;SDS011;38528;53.214;6.562;2022-09-16T07:57:19;10.88;;;2.30;;
52300;SDS011;38528;53.214;6.562;2022-09-16T07:59:46;11.88;;;2.03;;
52300;SDS011;38528;53.214;6.562;2022-09-16T08:02:12;15.40;;;2.35;;
52300;SDS011;38528;53.214;6.562;2022-09-16T08:04:38;10.55;;;2.10;;
52300;SDS011;38528;53.214;6.562;2022-09-16T08:07:04;10.55;;;2.55;;
52300;SDS011;38528;53.214;6.562;2022-09-16T08:09:30;16.00;;;3.00;;
52300;SDS011;38528;53.214;6.562;2022-09-16T08:11:55;10.27;;;2.25;;
52300;SDS011;38528;53.214;6.562;2022-09-16T08:14:21;13.15;;;2.72;;
52300;SDS011;38528;53.214;6.562;2022-09-16T08:16:47;11.30;;;2.50;;
52300;SDS011;38528;53.214;6.562;2022-09-16T08:19:15;13.77;;;2.40;;
52300;SDS011;38528;53.214;6.562;2022-09-16T08:21:41;8.50;;;2.38;;
52300;SDS011;38528;53.214;6.562;2022-09-16T08:24:07;13.98;;;2.45;;
52300;SDS011;38528;53.214;6.562;2022-09-16T08:26:34;13.25;;;2.75;;
52300;SDS011;38528;53.214;6.562;2022-09-16T08:29:00;14.35;;;2.97;;
52300;SDS011;38528;53.214;6.562;2022-09-16T08:31:26;15.45;;;1.95;;
52300;SDS011;38528;53.214;6.562;2022-09-16T08:33:52;9.93;;;2.08;;
52300;SDS011;38528;53.214;6.562;2022-09-16T08:36:18;12.73;;;2.10;;
52300;SDS011;38528;53.214;6.562;2022-09-16T08:38:46;10.48;;;2.10;;
52300;SDS011;38528;53.214;6.562;2022-09-16T08:44:08;11.20;;;1.95;;
52300;SDS011;38528;53.214;6.562;2022-09-16T08:51:46;11.00;;;2.22;;
52300;SDS011;38528;53.214;6.562;2022-09-16T08:54:17;11.35;;;2.25;;
52300;SDS011;38528;53.214;6.562;2022-09-16T08:56:52;9.95;;;2.33;;
52300;SDS011;38528;53.214;6.562;2022-09-16T08:59:23;10.57;;;2.08;;
52300;SDS011;38528;53.214;6.562;2022-09-16T09:04:35;12.20;;;2.40;;
52300;SDS011;38528;53.214;6.562;2022-09-16T09:07:16;12.77;;;2.53;;
52300;SDS011;38528;53.214;6.562;2022-09-16T09:12:34;11.57;;;2.25;;
52300;SDS011;38528;53.214;6.562;2022-09-16T09:18:05;11.70;;;2.50;;
52300;SDS011;38528;53.214;6.562;2022-09-16T09:20:53;9.70;;;2.20;;
52300;SDS011;38528;53.214;6.562;2022-09-16T09:26:32;12.73;;;2.65;;
52300;SDS011;38528;53.214;6.562;2022-09-16T09:40:14;10.60;;;2.20;;
52300;SDS011;38528;53.214;6.562;2022-09-16T09:42:52;5.78;;;1.80;;
52300;SDS011;38528;53.214;6.562;2022-09-16T09:48:34;9.43;;;2.20;;
52300;SDS011;38528;53.214;6.562;2022-09-16T09:51:06;10.75;;;2.17;;
52300;SDS011;38528;53.214;6.562;2022-09-16T09:53:53;8.68;;;1.88;;
52300;SDS011;38528;53.214;6.562;2022-09-16T09:56:34;8.63;;;1.98;;
52300;SDS011;38528;53.214;6.562;2022-09-16T10:02:06;11.80;;;2.03;;
52300;SDS011;38528;53.214;6.562;2022-09-16T10:04:41;10.68;;;2.08;;
52300;SDS011;38528;53.214;6.562;2022-09-16T10:07:06;9.82;;;2.20;;
52300;SDS011;38528;53.214;6.562;2022-09-16T10:09:34;12.65;;;2.40;;
52300;SDS011;38528;53.214;6.562;2022-09-16T10:12:01;9.52;;;2.00;;
52300;SDS011;38528;53.214;6.562;2022-09-16T10:14:29;10.98;;;2.20;;
52300;SDS011;38528;53.214;6.562;2022-09-16T10:17:03;7.63;;;2.00;;
52300;SDS011;38528;53.214;6.562;2022-09-16T10:19:47;9.18;;;2.20;;
52300;SDS011;38528;53.214;6.562;2022-09-16T10:22:23;9.57;;;2.00;;
52300;SDS011;38528;53.214;6.562;2022-09-16T10:24:57;9.63;;;2.20;;
52300;SDS011;38528;53.214;6.562;2022-09-16T10:27:52;10.25;;;2.10;;
52300;SDS011;38528;53.214;6.562;2022-09-16T10:30:20;9.70;;;2.13;;
52300;SDS011;38528;53.214;6.562;2022-09-16T10:32:51;11.88;;;2.42;;
52300;SDS011;38528;53.214;6.562;2022-09-16T10:35:20;10.68;;;2.10;;
52300;SDS011;38528;53.214;6.562;2022-09-16T10:37:49;8.20;;;1.95;;
52300;SDS011;38528;53.214;6.562;2022-09-16T10:40:17;9.35;;;2.25;;
52300;SDS011;38528;53.214;6.562;2022-09-16T10:42:47;7.22;;;1.90;;
52300;SDS011;38528;53.214;6.562;2022-09-16T10:45:14;8.32;;;2.03;;
52300;SDS011;38528;53.214;6.562;2022-09-16T10:47:56;9.77;;;2.30;;
52300;SDS011;38528;53.214;6.562;2022-09-16T10:50:23;10.82;;;1.90;;
52300;SDS011;38528;53.214;6.562;2022-09-16T10:52:50;8.45;;;1.88;;
52300;SDS011;38528;53.214;6.562;2022-09-16T10:57:49;7.03;;;2.08;;
52300;SDS011;38528;53.214;6.562;2022-09-16T11:00:23;8.15;;;1.70;;
52300;SDS011;38528;53.214;6.562;2022-09-16T11:08:07;8.23;;;1.98;;
52300;SDS011;38528;53.214;6.562;2022-09-16T11:26:40;9.77;;;2.33;;
52300;SDS011;38528;53.214;6.562;2022-09-16T11:29:16;21.05;;;4.07;;
52300;SDS011;38528;53.214;6.562;2022-09-16T11:36:50;15.73;;;3.47;;
52300;SDS011;38528;53.214;6.562;2022-09-16T11:42:28;12.55;;;2.55;;
52300;SDS011;38528;53.214;6.562;2022-09-16T11:53:14;13.60;;;2.60;;
52300;SDS011;38528;53.214;6.562;2022-09-16T11:56:17;16.10;;;2.55;;
52300;SDS011;38528;53.214;6.562;2022-09-16T11:59:01;16.10;;;2.65;;
52300;SDS011;38528;53.214;6.562;2022-09-16T12:01:51;14.88;;;2.45;;
52300;SDS011;38528;53.214;6.562;2022-09-16T12:04:43;15.20;;;2.72;;
52300;SDS011;38528;53.214;6.562;2022-09-16T12:12:43;11.57;;;2.80;;
52300;SDS011;38528;53.214;6.562;2022-09-16T12:15:18;15.77;;;3.17;;
52300;SDS011;38528;53.214;6.562;2022-09-16T12:17:52;12.18;;;2.53;;
52300;SDS011;38528;53.214;6.562;2022-09-16T12:20:30;11.45;;;3.05;;
52300;SDS011;38528;53.214;6.562;2022-09-16T12:23:10;13.98;;;2.53;;
52300;SDS011;38528;53.214;6.562;2022-09-16T12:31:18;13.90;;;2.75;;
52300;SDS011;38528;53.214;6.562;2022-09-16T12:34:12;14.02;;;3.20;;
52300;SDS011;38528;53.214;6.562;2022-09-16T12:36:44;17.90;;;3.10;;
52300;SDS011;38528;53.214;6.562;2022-09-16T12:39:13;18.58;;;2.85;;
52300;SDS011;38528;53.214;6.562;2022-09-16T12:53:05;12.15;;;2.40;;
52300;SDS011;38528;53.214;6.562;2022-09-16T12:55:55;10.70;;;2.03;;
52300;SDS011;38528;53.214;6.562;2022-09-16T12:58:52;7.88;;;1.52;;
52300;SDS011;38528;53.214;6.562;2022-09-16T13:01:34;6.28;;;1.80;;
52300;SDS011;38528;53.214;6.562;2022-09-16T13:04:03;8.70;;;1.98;;
52300;SDS011;38528;53.214;6.562;2022-09-16T13:06:47;8.40;;;2.10;;
52300;SDS011;38528;53.214;6.562;2022-09-16T13:09:23;7.28;;;1.70;;
52300;SDS011;38528;53.214;6.562;2022-09-16T13:11:56;8.18;;;2.10;;
52300;SDS011;38528;53.214;6.562;2022-09-16T13:14:25;10.07;;;1.80;;
52300;SDS011;38528;53.214;6.562;2022-09-16T13:17:00;7.72;;;1.88;;
52300;SDS011;38528;53.214;6.562;2022-09-16T13:22:16;5.15;;;1.50;;
52300;SDS011;38528;53.214;6.562;2022-09-16T13:25:06;9.35;;;1.83;;
52300;SDS011;38528;53.214;6.562;2022-09-16T13:27:33;5.13;;;1.50;;
52300;SDS011;38528;53.214;6.562;2022-09-16T13:32:37;7.28;;;1.40;;
52300;SDS011;38528;53.214;6.562;2022-09-16T13:35:19;6.93;;;1.60;;
52300;SDS011;38528;53.214;6.562;2022-09-16T13:37:48;3.90;;;1.55;;
52300;SDS011;38528;53.214;6.562;2022-09-16T13:40:17;4.88;;;1.42;;
52300;SDS011;38528;53.214;6.562;2022-09-16T13:43:14;5.20;;;1.40;;
52300;SDS011;38528;53.214;6.562;2022-09-16T13:45:43;7.82;;;1.70;;
52300;SDS011;38528;53.214;6.562;2022-09-16T13:48:13;6.68;;;1.42;;
52300;SDS011;38528;53.214;6.562;2022-09-16T13:50:42;6.32;;;1.60;;
52300;SDS011;38528;53.214;6.562;2022-09-16T13:53:31;10.77;;;1.85;;
52300;SDS011;38528;53.214;6.562;2022-09-16T13:56:00;7.18;;;1.58;;
52300;SDS011;38528;53.214;6.562;2022-09-16T14:09:58;11.10;;;2.00;;
52300;SDS011;38528;53.214;6.562;2022-09-16T14:12:36;11.02;;;2.38;;
52300;SDS011;38528;53.214;6.562;2022-09-16T14:15:13;11.45;;;2.50;;
52300;SDS011;38528;53.214;6.562;2022-09-16T14:17:41;10.30;;;2.30;;
52300;SDS011;38528;53.214;6.562;2022-09-16T14:20:14;10.27;;;2.53;;
52300;SDS011;38528;53.214;6.562;2022-09-16T14:22:42;13.75;;;2.42;;
52300;SDS011;38528;53.214;6.562;2022-09-16T14:25:51;8.63;;;2.08;;
52300;SDS011;38528;53.214;6.562;2022-09-16T14:28:32;6.72;;;1.70;;
52300;SDS011;38528;53.214;6.562;2022-09-16T14:33:29;12.80;;;2.17;;
52300;SDS011;38528;53.214;6.562;2022-09-16T14:35:57;7.85;;;1.75;;
52300;SDS011;38528;53.214;6.562;2022-09-16T14:38:30;9.82;;;1.90;;
52300;SDS011;38528;53.214;6.562;2022-09-16T14:41:04;9.20;;;1.60;;
52300;SDS011;38528;53.214;6.562;2022-09-16T14:43:33;9.43;;;1.90;;
52300;SDS011;38528;53.214;6.562;2022-09-16T14:46:02;6.10;;;1.45;;
52300;SDS011;38528;53.214;6.562;2022-09-16T14:48:32;8.80;;;1.83;;
52300;SDS011;38528;53.214;6.562;2022-09-16T14:51:02;7.40;;;1.85;;
52300;SDS011;38528;53.214;6.562;2022-09-16T14:53:33;8.65;;;1.92;;
52300;SDS011;38528;53.214;6.562;2022-09-16T14:56:00;8.75;;;2.33;;
52300;SDS011;38528;53.214;6.562;2022-09-16T14:58:27;8.52;;;1.90;;
52300;SDS011;38528;53.214;6.562;2022-09-16T15:01:17;8.13;;;1.90;;
52300;SDS011;38528;53.214;6.562;2022-09-16T15:03:47;11.90;;;1.95;;
52300;SDS011;38528;53.214;6.562;2022-09-16T15:06:35;8.70;;;1.83;;
52300;SDS011;38528;53.214;6.562;2022-09-16T15:09:12;9.40;;;2.00;;
52300;SDS011;38528;53.214;6.562;2022-09-16T15:11:56;9.07;;;2.20;;
52300;SDS011;38528;53.214;6.562;2022-09-16T15:14:23;9.02;;;2.05;;
52300;SDS011;38528;53.214;6.562;2022-09-16T15:16:52;12.07;;;2.67;;
52300;SDS011;38528;53.214;6.562;2022-09-16T15:19:25;13.15;;;2.28;;
52300;SDS011;38528;53.214;6.562;2022-09-16T15:22:03;14.75;;;2.42;;
52300;SDS011;38528;53.214;6.562;2022-09-16T15:24:33;11.73;;;2.05;;
52300;SDS011;38528;53.214;6.562;2022-09-16T15:27:03;11.93;;;2.15;;
52300;SDS011;38528;53.214;6.562;2022-09-16T15:29:31;7.70;;;2.20;;
52300;SDS011;38528;53.214;6.562;2022-09-16T15:32:41;10.57;;;1.88;;
52300;SDS011;38528;53.214;6.562;2022-09-16T15:35:08;12.45;;;2.25;;
52300;SDS011;38528;53.214;6.562;2022-09-16T15:37:43;15.77;;;2.28;;
52300;SDS011;38528;53.214;6.562;2022-09-16T15:45:34;9.30;;;1.90;;
52300;SDS011;38528;53.214;6.562;2022-09-16T15:48:08;8.38;;;1.85;;
52300;SDS011;38528;53.214;6.562;2022-09-16T15:50:42;9.55;;;2.08;;
52300;SDS011;38528;53.214;6.562;2022-09-16T15:58:44;12.20;;;2.20;;
52300;SDS011;38528;53.214;6.562;2022-09-16T16:06:14;13.18;;;2.22;;
52300;SDS011;38528;53.214;6.562;2022-09-16T16:11:17;9.65;;;1.83;;
52300;SDS011;38528;53.214;6.562;2022-09-16T16:13:44;13.18;;;2.60;;
52300;SDS011;38528;53.214;6.562;2022-09-16T16:16:11;10.90;;;2.30;;
52300;SDS011;38528;53.214;6.562;2022-09-16T16:18:38;12.40;;;2.50;;
52300;SDS011;38528;53.214;6.562;2022-09-16T16:21:12;12.25;;;2.42;;
52300;SDS011;38528;53.214;6.562;2022-09-16T16:23:40;11.15;;;2.20;;
52300;SDS011;38528;53.214;6.562;2022-09-16T16:26:08;9.73;;;2.33;;
52300;SDS011;38528;53.214;6.562;2022-09-16T16:28:35;11.48;;;2.10;;
52300;SDS011;38528;53.214;6.562;2022-09-16T16:33:41;9.95;;;2.15;;
52300;SDS011;38528;53.214;6.562;2022-09-16T16:36:12;11.00;;;2.47;;
52300;SDS011;38528;53.214;6.562;2022-09-16T16:38:39;10.95;;;2.08;;
52300;SDS011;38528;53.214;6.562;2022-09-16T16:41:05;7.97;;;1.90;;
52300;SDS011;38528;53.214;6.562;2022-09-16T16:43:31;7.53;;;2.00;;
52300;SDS011;38528;53.214;6.562;2022-09-16T16:45:57;8.32;;;1.95;;
52300;SDS011;38528;53.214;6.562;2022-09-16T16:48:25;12.65;;;2.10;;
52300;SDS011;38528;53.214;6.562;2022-09-16T16:50:55;9.10;;;1.92;;
52300;SDS011;38528;53.214;6.562;2022-09-16T16:53:21;13.75;;;2.42;;
52300;SDS011;38528;53.214;6.562;2022-09-16T16:55:46;12.38;;;2.42;;
52300;SDS011;38528;53.214;6.562;2022-09-16T16:58:12;10.48;;;2.00;;
52300;SDS011;38528;53.214;6.562;2022-09-16T17:00:37;6.80;;;1.88;;
52300;SDS011;38528;53.214;6.562;2022-09-16T17:03:04;9.52;;;2.25;;
52300;SDS011;38528;53.214;6.562;2022-09-16T17:05:29;8.93;;;2.17;;
52300;SDS011;38528;53.214;6.562;2022-09-16T17:07:55;11.60;;;2.28;;
52300;SDS011;38528;53.214;6.562;2022-09-16T17:10:20;10.23;;;1.98;;
52300;SDS011;38528;53.214;6.562;2022-09-16T17:12:47;7.57;;;1.80;;
52300;SDS011;38528;53.214;6.562;2022-09-16T17:15:13;11.35;;;2.25;;
52300;SDS011;38528;53.214;6.562;2022-09-16T17:17:38;8.32;;;2.28;;
52300;SDS011;38528;53.214;6.562;2022-09-16T17:20:04;10.68;;;2.47;;
52300;SDS011;38528;53.214;6.562;2022-09-16T17:22:31;10.85;;;2.70;;
52300;SDS011;38528;53.214;6.562;2022-09-16T17:24:57;10.32;;;2.72;;
52300;SDS011;38528;53.214;6.562;2022-09-16T17:27:22;12.48;;;2.78;;
52300;SDS011;38528;53.214;6.562;2022-09-16T17:29:51;10.48;;;2.30;;
52300;SDS011;38528;53.214;6.562;2022-09-16T17:32:16;14.18;;;3.10;;
52300;SDS011;38528;53.214;6.562;2022-09-16T17:34:42;13.45;;;2.97;;
52300;SDS011;38528;53.214;6.562;2022-09-16T17:37:08;13.07;;;2.78;;
52300;SDS011;38528;53.214;6.562;2022-09-16T17:39:33;13.48;;;2.92;;
52300;SDS011;38528;53.214;6.562;2022-09-16T17:41:59;17.35;;;3.55;;
52300;SDS011;38528;53.214;6.562;2022-09-16T17:44:25;16.38;;;3.25;;
52300;SDS011;38528;53.214;6.562;2022-09-16T17:46:51;15.85;;;3.28;;
52300;SDS011;38528;53.214;6.562;2022-09-16T17:49:20;19.77;;;3.42;;
52300;SDS011;38528;53.214;6.562;2022-09-16T17:51:48;17.55;;;3.88;;
52300;SDS011;38528;53.214;6.562;2022-09-16T17:54:15;19.58;;;4.00;;
52300;SDS011;38528;53.214;6.562;2022-09-16T17:56:41;28.85;;;4.60;;
52300;SDS011;38528;53.214;6.562;2022-09-16T17:59:07;22.92;;;3.90;;
52300;SDS011;38528;53.214;6.562;2022-09-16T18:01:33;19.92;;;4.35;;
52300;SDS011;38528;53.214;6.562;2022-09-16T18:03:59;18.50;;;4.03;;
52300;SDS011;38528;53.214;6.562;2022-09-16T18:06:30;18.05;;;3.05;;
52300;SDS011;38528;53.214;6.562;2022-09-16T18:09:00;14.40;;;2.78;;
52300;SDS011;38528;53.214;6.562;2022-09-16T18:11:29;12.20;;;2.50;;
52300;SDS011;38528;53.214;6.562;2022-09-16T18:13:56;13.32;;;2.38;;
52300;SDS011;38528;53.214;6.562;2022-09-16T18:16:23;16.15;;;2.70;;
52300;SDS011;38528;53.214;6.562;2022-09-16T18:18:50;14.40;;;2.78;;
52300;SDS011;38528;53.214;6.562;2022-09-16T18:21:17;13.73;;;2.42;;
52300;SDS011;38528;53.214;6.562;2022-09-16T18:23:44;15.63;;;2.60;;